Time;durP1;ratioP1;P1;durP2;ratioP2;P2;SDS_P1;SDS_P2;PMS_P1;PMS_P2;Temp;Humidity;BMP_temperature;BMP_pressure;BME280_temperature;BME280_humidity;BME280_pressure;Samples;Min_cycle;Max_cycle;Signal;HPM_P1;HPM_P2
2022/04/30 00:00:29;;;;;;;0.97;0.87;;;9.20;99.90;8.10;102697.00;;;;5034636;28;20637;-83
2022/04/30 00:02:59;;;;;;;2.27;2.07;;;9.00;99.90;8.10;102689.00;;;;5034880;28;20193;-86
2022/04/30 00:05:32;;;;;;;1.43;1.33;;;9.00;99.90;8.40;102703.00;;;;5035577;28;20177;-87
2022/04/30 00:08:00;;;;;;;1.07;0.97;;;9.00;99.90;8.00;102701.00;;;;5030572;28;20195;-85
2022/04/30 00:10:27;;;;;;;1.37;1.03;;;8.90;99.90;8.10;102705.00;;;;5018027;28;20205;-85
2022/04/30 00:12:53;;;;;;;1.30;1.20;;;8.90;99.90;8.00;102687.00;;;;5047619;28;20215;-85
2022/04/30 00:15:20;;;;;;;0.80;0.80;;;8.80;99.90;8.10;102701.00;;;;5014451;28;20188;-84
2022/04/30 00:17:47;;;;;;;1.07;0.97;;;8.80;99.90;8.00;102692.00;;;;5031023;28;20190;-87
2022/04/30 00:20:29;;;;;;;2.50;0.90;;;8.80;99.90;8.20;102692.00;;;;5031625;28;20186;-85
2022/04/30 00:22:56;;;;;;;0.73;0.73;;;8.80;99.90;8.10;102705.00;;;;5028557;28;20541;-86
2022/04/30 00:25:29;;;;;;;1.43;1.37;;;8.80;99.90;7.90;102694.00;;;;5015521;28;20319;-86
2022/04/30 00:27:58;;;;;;;2.43;0.83;;;8.80;99.90;7.90;102708.00;;;;5030990;28;20608;-86
2022/04/30 00:30:24;;;;;;;0.70;0.70;;;8.70;99.90;7.80;102688.00;;;;5030869;28;20605;-86
2022/04/30 00:32:51;;;;;;;0.70;0.70;;;8.70;99.90;7.90;102694.00;;;;5030448;28;20327;-86
2022/04/30 00:35:24;;;;;;;1.60;0.87;;;8.60;99.90;7.80;102685.00;;;;5030291;28;20182;-86
2022/04/30 00:37:50;;;;;;;1.03;0.87;;;8.60;99.90;7.70;102687.00;;;;5015309;28;20615;-85
2022/04/30 00:40:16;;;;;;;3.73;1.63;;;8.60;99.90;7.80;102645.00;;;;5014052;28;20186;-81
2022/04/30 00:42:44;;;;;;;1.57;1.47;;;8.60;99.90;7.60;102695.00;;;;5030410;28;20190;-82
2022/04/30 00:45:10;;;;;;;0.77;0.77;;;8.50;99.90;7.70;102683.00;;;;5015277;28;20176;-85
2022/04/30 00:47:36;;;;;;;0.83;0.83;;;8.50;99.90;7.90;102695.00;;;;5015132;28;20194;-82
2022/04/30 00:50:02;;;;;;;0.73;0.70;;;8.60;99.90;7.90;102702.00;;;;5030637;28;20179;-85
2022/04/30 00:52:29;;;;;;;0.47;0.47;;;8.60;99.90;7.70;102665.00;;;;5014449;28;20290;-82
2022/04/30 00:54:59;;;;;;;2.93;2.37;;;8.60;99.90;7.90;102648.00;;;;5029038;28;20185;-82
2022/04/30 00:57:31;;;;;;;0.40;0.40;;;8.60;99.90;7.70;102697.00;;;;5030587;28;20202;-81
2022/04/30 01:00:00;;;;;;;1.03;0.93;;;8.60;99.90;7.70;102643.00;;;;5030089;28;20645;-82
2022/04/30 01:02:32;;;;;;;0.50;0.50;;;8.50;99.90;7.70;102695.00;;;;5014648;28;20665;-82
2022/04/30 01:05:00;;;;;;;0.70;0.70;;;8.50;99.90;8.00;102690.00;;;;5014510;28;20182;-81
2022/04/30 01:07:47;;;;;;;0.70;0.70;;;8.50;99.90;7.60;102692.00;;;;5015134;28;20180;-81
2022/04/30 01:10:16;;;;;;;1.33;1.23;;;8.50;99.90;7.40;102648.00;;;;5014582;28;20213;-81
2022/04/30 01:12:43;;;;;;;2.47;1.47;;;8.30;99.90;7.40;102700.00;;;;5030067;28;20297;-82
2022/04/30 01:15:11;;;;;;;0.70;0.70;;;8.30;99.90;7.40;102633.00;;;;5029972;28;20186;-82
2022/04/30 01:17:39;;;;;;;1.60;1.50;;;8.20;99.90;7.40;102643.00;;;;5029832;28;20553;-82
2022/04/30 01:20:10;;;;;;;1.77;1.23;;;8.30;99.90;7.60;102700.00;;;;5029637;28;20181;-81
2022/04/30 01:22:55;;;;;;;2.73;1.53;;;8.30;99.90;7.70;102642.00;;;;5030112;28;20175;-81
2022/04/30 01:25:22;;;;;;;0.40;0.40;;;8.40;99.90;7.60;102683.00;;;;5046073;28;20211;-81
2022/04/30 01:27:52;;;;;;;2.10;1.90;;;8.30;99.90;7.40;102684.00;;;;5014751;28;20181;-82
2022/04/30 01:30:27;;;;;;;1.17;1.10;;;8.20;99.90;7.20;102680.00;;;;5029388;28;20276;-81
2022/04/30 01:38:25;;;;;;;0.70;0.70;;;8.10;99.90;7.30;102688.00;;;;5026903;28;20196;-81
2022/04/30 01:40:54;;;;;;;0.80;0.80;;;8.10;99.90;7.40;102635.00;;;;5029212;28;20190;-80
2022/04/30 01:43:21;;;;;;;0.70;0.70;;;8.10;99.90;7.30;102683.00;;;;5031157;28;20201;-79
2022/04/30 01:45:48;;;;;;;0.60;0.60;;;8.10;99.90;7.10;102667.00;;;;5032490;28;20212;-78
2022/04/30 01:48:15;;;;;;;0.60;0.60;;;8.00;99.90;7.10;102681.00;;;;5015143;28;20229;-85
2022/04/30 01:50:44;;;;;;;3.33;1.10;;;8.00;99.90;7.00;102685.00;;;;5030762;28;20201;-84
2022/04/30 01:53:10;;;;;;;0.87;0.87;;;7.90;99.90;7.10;102693.00;;;;5030675;28;20664;-82
2022/04/30 01:55:38;;;;;;;0.60;0.60;;;7.90;99.90;7.00;102683.00;;;;5030432;28;20641;-82
2022/04/30 01:58:05;;;;;;;1.30;1.20;;;7.80;99.90;7.00;102694.00;;;;5030858;28;20179;-82
2022/04/30 02:00:31;;;;;;;0.60;0.60;;;7.80;99.90;7.10;102638.00;;;;5031430;28;20633;-84
2022/04/30 02:03:05;;;;;;;2.57;2.00;;;7.80;99.90;6.90;102673.00;;;;5032211;28;20191;-82
2022/04/30 02:05:32;;;;;;;0.80;0.80;;;7.80;99.90;6.80;102632.00;;;;5031810;28;20188;-83
2022/04/30 02:08:04;;;;;;;0.50;0.50;;;7.70;99.90;6.90;102688.00;;;;5032462;28;20185;-83
2022/04/30 02:10:33;;;;;;;1.37;1.10;;;7.70;99.90;6.80;102664.00;;;;5032048;28;20695;-81
2022/04/30 02:13:00;;;;;;;3.63;3.40;;;7.70;99.90;6.90;102671.00;;;;5032124;28;20216;-81
2022/04/30 02:15:28;;;;;;;0.63;0.63;;;7.70;99.90;6.80;102623.00;;;;5032648;28;20238;-82
2022/04/30 02:17:56;;;;;;;1.53;1.43;;;7.60;99.90;6.70;102614.00;;;;5032006;28;20186;-82
2022/04/30 02:20:37;;;;;;;1.50;1.40;;;7.60;99.90;6.50;102626.00;;;;5032164;28;20172;-82
2022/04/30 02:23:05;;;;;;;0.97;0.97;;;7.50;99.90;7.10;102679.00;;;;5032483;28;20261;-82
2022/04/30 02:25:32;;;;;;;0.60;0.60;;;7.60;99.90;7.00;102623.00;;;;5031946;28;20583;-83
2022/04/30 02:28:04;;;;;;;0.40;0.40;;;7.70;99.90;7.00;102625.00;;;;5032281;28;20182;-83
2022/04/30 02:30:35;;;;;;;0.90;0.90;;;7.70;99.90;6.90;102670.00;;;;5032010;28;20183;-82
2022/04/30 02:33:08;;;;;;;0.47;0.47;;;7.70;99.90;6.70;102604.00;;;;5031650;28;20220;-82
2022/04/30 02:35:39;;;;;;;0.87;0.87;;;7.60;99.90;6.80;102674.00;;;;5031933;28;20189;-82
2022/04/30 02:38:08;;;;;;;0.93;0.93;;;7.60;99.90;6.90;102675.00;;;;5033267;28;20219;-84
2022/04/30 02:40:38;;;;;;;0.40;0.40;;;7.70;99.90;6.70;102674.00;;;;5032899;28;20179;-83
2022/04/30 02:43:15;;;;;;;0.83;0.70;;;7.60;99.90;6.70;102664.00;;;;5032898;28;20210;-79
2022/04/30 02:45:43;;;;;;;1.13;1.10;;;7.60;99.90;6.80;102676.00;;;;5031829;28;20171;-86
2022/04/30 02:48:13;;;;;;;0.40;0.40;;;7.60;99.90;6.60;102611.00;;;;5031809;28;20222;-81
2022/04/30 02:50:40;;;;;;;0.90;0.60;;;7.40;99.90;6.50;102668.00;;;;5031564;28;20766;-82
2022/04/30 02:56:05;;;;;;;0.77;0.73;;;7.40;99.90;6.80;102657.00;;;;5030075;28;20643;-84
2022/04/30 03:01:19;;;;;;;0.70;0.70;;;7.50;99.90;6.60;102665.00;;;;5031945;28;20207;-85
2022/04/30 03:03:48;;;;;;;0.40;0.40;;;7.50;99.90;6.90;102659.00;;;;5031943;28;20173;-87
2022/04/30 03:06:16;;;;;;;0.40;0.40;;;7.50;99.90;6.90;102665.00;;;;5031976;28;20192;-86
2022/04/30 03:08:48;;;;;;;0.40;0.40;;;7.60;99.90;6.50;102667.00;;;;5031815;28;20542;-87
2022/04/30 03:11:15;;;;;;;0.83;0.83;;;7.40;99.90;6.50;102655.00;;;;5031633;28;20253;-86
2022/04/30 03:13:41;;;;;;;0.50;0.50;;;7.30;99.90;6.70;102665.00;;;;5031468;28;20181;-86
2022/04/30 03:21:42;;;;;;;0.50;0.50;;;7.40;99.90;6.70;102662.00;;;;5035564;28;20191;-87
2022/04/30 03:24:09;;;;;;;0.40;0.40;;;7.30;99.90;7.50;102663.00;;;;5035390;28;20264;-88
2022/04/30 03:26:35;;;;;;;0.50;0.50;;;7.60;99.90;8.00;102668.00;;;;5036491;28;20222;-86
2022/04/30 03:29:03;;;;;;;1.43;1.33;;;8.00;99.90;8.30;102656.00;;;;5035271;28;20604;-86
2022/04/30 03:31:32;;;;;;;0.47;0.47;;;8.30;99.90;8.00;102654.00;;;;5034593;28;20218;-87
2022/04/30 03:34:01;;;;;;;0.50;0.50;;;8.30;99.90;8.30;102651.00;;;;5035244;28;20248;-82
2022/04/30 03:36:30;;;;;;;0.50;0.50;;;8.40;99.90;8.00;102605.00;;;;5034681;28;20184;-82
2022/04/30 03:38:56;;;;;;;0.50;0.50;;;8.40;99.90;7.70;102644.00;;;;5035098;28;20168;-85
2022/04/30 03:41:22;;;;;;;0.60;0.60;;;8.30;99.90;8.00;102642.00;;;;5034454;28;20198;-86
2022/04/30 03:43:49;;;;;;;0.50;0.50;;;8.30;99.90;8.00;102659.00;;;;5034842;28;20698;-84
2022/04/30 03:46:15;;;;;;;0.50;0.50;;;8.20;99.90;7.80;102620.00;;;;5034809;28;20272;-84
2022/04/30 03:48:51;;;;;;;1.13;1.10;;;8.10;99.90;7.90;102656.00;;;;5034910;28;20173;-84
2022/04/30 03:51:18;;;;;;;1.00;1.00;;;8.30;99.90;8.10;102597.00;;;;5034640;28;20209;-84
2022/04/30 03:53:43;;;;;;;0.60;0.60;;;8.30;99.90;7.60;102640.00;;;;5034961;28;20239;-84
2022/04/30 03:56:09;;;;;;;0.50;0.50;;;8.00;99.90;7.80;102633.00;;;;5035010;28;20652;-83
2022/04/30 03:58:38;;;;;;;0.77;0.77;;;8.20;99.90;7.60;102639.00;;;;5034645;28;20641;-84
2022/04/30 04:01:03;;;;;;;0.50;0.50;;;8.00;99.90;7.80;102643.00;;;;5034464;28;20579;-83
2022/04/30 04:03:32;;;;;;;0.60;0.60;;;8.10;99.90;7.40;102647.00;;;;5034020;28;20246;-82
2022/04/30 04:05:58;;;;;;;0.50;0.50;;;7.90;99.90;7.10;102635.00;;;;5034091;28;20182;-83
2022/04/30 04:08:27;;;;;;;0.50;0.50;;;7.60;99.90;7.10;102626.00;;;;5017935;28;20267;-84
2022/04/30 04:10:53;;;;;;;0.50;0.50;;;7.50;99.90;6.70;102633.00;;;;5034586;28;20636;-84
2022/04/30 04:18:56;;;;;;;0.50;0.50;;;7.20;99.90;7.40;102638.00;;;;5033845;28;20184;-83
2022/04/30 04:21:24;;;;;;;0.53;0.53;;;7.50;99.90;7.40;102641.00;;;;5034657;28;20183;-86
2022/04/30 04:26:37;;;;;;;0.50;0.50;;;7.80;99.90;7.70;102604.00;;;;5015639;28;20188;-85
2022/04/30 04:29:06;;;;;;;1.63;1.60;;;7.80;99.90;7.80;102644.00;;;;4997708;28;20188;-83
2022/04/30 04:31:36;;;;;;;0.90;0.90;;;7.90;99.90;7.10;102647.00;;;;5013557;28;20223;-83
2022/04/30 04:34:04;;;;;;;0.50;0.50;;;7.70;99.90;7.40;102652.00;;;;5013973;28;20216;-84
2022/04/30 04:36:32;;;;;;;1.00;1.00;;;7.80;99.90;7.30;102654.00;;;;5014275;28;20203;-83
2022/04/30 04:39:01;;;;;;;0.50;0.50;;;7.80;99.90;7.10;102624.00;;;;5014308;28;20212;-84
2022/04/30 04:41:27;;;;;;;0.50;0.50;;;7.50;99.90;7.40;102618.00;;;;5014456;28;20180;-83
2022/04/30 04:43:55;;;;;;;2.53;1.83;;;7.70;99.90;6.80;102665.00;;;;5015326;28;20662;-83
2022/04/30 04:46:23;;;;;;;0.50;0.50;;;7.60;99.90;7.10;102670.00;;;;5015628;28;20187;-83
2022/04/30 04:48:49;;;;;;;0.50;0.50;;;7.60;99.90;6.80;102677.00;;;;5014902;28;20177;-84
2022/04/30 04:51:15;;;;;;;2.30;0.63;;;7.50;99.90;7.10;102620.00;;;;5015146;28;20367;-85
2022/04/30 04:53:41;;;;;;;1.27;1.27;;;7.60;99.90;7.40;102672.00;;;;5014763;28;20177;-85
2022/04/30 04:56:07;;;;;;;0.50;0.50;;;7.70;99.90;6.80;102687.00;;;;5014047;28;20530;-86
2022/04/30 04:58:37;;;;;;;1.20;1.20;;;7.60;99.90;7.30;102683.00;;;;4997134;28;20181;-84
2022/04/30 05:01:03;;;;;;;0.70;0.70;;;7.60;99.90;7.10;102678.00;;;;5015028;28;20183;-86
2022/04/30 05:03:32;;;;;;;0.50;0.50;;;7.70;99.90;7.80;102668.00;;;;4997241;28;20178;-81
2022/04/30 05:05:58;;;;;;;0.50;0.50;;;8.00;99.90;7.60;102683.00;;;;5013763;28;20310;-83
2022/04/30 05:08:24;;;;;;;1.90;1.70;;;8.00;99.90;7.70;102697.00;;;;5014796;28;20265;-82
2022/04/30 05:10:50;;;;;;;0.50;0.50;;;8.10;99.90;8.10;102687.00;;;;4997286;28;20182;-82
2022/04/30 05:13:16;;;;;;;0.50;0.50;;;8.20;99.90;7.60;102691.00;;;;4996610;28;20267;-82
2022/04/30 05:15:43;;;;;;;0.80;0.80;;;8.30;99.90;7.50;102689.00;;;;4996851;28;20188;-80
2022/04/30 05:18:11;;;;;;;3.40;2.00;;;8.20;99.90;8.10;102693.00;;;;5013293;28;20537;-88
2022/04/30 05:20:38;;;;;;;0.40;0.40;;;8.30;99.90;8.30;102685.00;;;;4997046;28;20376;-88
2022/04/30 05:23:06;;;;;;;0.87;0.87;;;8.60;99.90;9.00;102655.00;;;;5014629;28;20269;-88
2022/04/30 05:25:32;;;;;;;0.70;0.60;;;9.00;99.90;9.80;102680.00;;;;4996957;28;20198;-87
2022/04/30 05:27:58;;;;;;;0.70;0.70;;;9.60;99.90;8.80;102629.00;;;;5013332;28;20179;-87
2022/04/30 05:30:24;;;;;;;0.93;0.93;;;9.60;99.90;10.10;102676.00;;;;4996713;28;20203;-88
2022/04/30 05:32:51;;;;;;;0.30;0.30;;;10.00;99.90;11.50;102670.00;;;;4996593;28;20313;-87
2022/04/30 05:35:17;;;;;;;0.70;0.70;;;11.00;99.90;10.30;102639.00;;;;4996285;28;20181;-87
2022/04/30 05:37:46;;;;;;;1.57;1.47;;;11.20;99.90;10.80;102671.00;;;;5013017;28;20665;-86
2022/04/30 05:40:32;;;;;;;0.93;0.93;;;11.00;99.90;9.40;102669.00;;;;5012721;28;20183;-87
2022/04/30 05:42:58;;;;;;;0.30;0.30;;;10.50;99.90;9.50;102662.00;;;;5013979;28;20209;-86
2022/04/30 05:45:24;;;;;;;1.03;1.03;;;10.00;99.90;10.10;102624.00;;;;4996418;28;20560;-85
2022/04/30 05:47:50;;;;;;;1.17;1.17;;;10.50;99.90;10.90;102629.00;;;;5014111;28;20174;-84
2022/04/30 05:50:21;;;;;;;0.30;0.30;;;11.00;99.90;10.50;102673.00;;;;5014351;28;20209;-81
2022/04/30 05:52:50;;;;;;;0.53;0.53;;;11.10;99.90;10.80;102675.00;;;;5012878;28;20342;-81
2022/04/30 05:55:16;;;;;;;0.90;0.90;;;11.30;99.90;9.30;102654.00;;;;5012560;28;20184;-86
2022/04/30 05:57:47;;;;;;;1.07;1.07;;;10.50;99.90;8.50;102657.00;;;;5012806;28;20509;-85
2022/04/30 06:00:14;;;;;;;0.43;0.43;;;9.90;99.90;9.50;102685.00;;;;5012965;28;20184;-84
2022/04/30 06:02:42;;;;;;;0.20;0.20;;;9.80;99.90;9.50;102630.00;;;;5012890;28;20645;-86
2022/04/30 06:05:11;;;;;;;1.07;0.97;;;10.10;99.90;9.80;102685.00;;;;4996426;28;20181;-86
2022/04/30 06:07:40;;;;;;;0.20;0.20;;;10.20;99.90;9.90;102696.00;;;;5012919;28;20532;-86
2022/04/30 06:10:10;;;;;;;0.30;0.30;;;10.30;99.90;11.10;102694.00;;;;5012611;28;20267;-86
2022/04/30 06:12:39;;;;;;;0.97;0.70;;;10.80;99.90;11.00;102707.00;;;;5012725;28;20217;-85
2022/04/30 06:15:06;;;;;;;1.03;0.77;;;11.30;99.90;10.90;102665.00;;;;4996697;28;20177;-83
2022/04/30 06:17:35;;;;;;;0.87;0.87;;;11.50;99.90;11.30;102715.00;;;;5013727;28;20189;-86
2022/04/30 06:20:01;;;;;;;0.53;0.53;;;11.60;99.90;11.80;102702.00;;;;5012542;28;20205;-85
2022/04/30 06:22:27;;;;;;;0.40;0.40;;;11.90;99.90;11.20;102703.00;;;;5012600;28;20194;-83
2022/04/30 06:24:56;;;;;;;0.73;0.63;;;12.00;99.90;13.10;102726.00;;;;4995568;28;20177;-81
2022/04/30 06:27:21;;;;;;;0.20;0.20;;;13.00;99.90;11.10;102731.00;;;;5012361;28;20184;-81
2022/04/30 06:29:50;;;;;;;0.10;0.10;;;12.50;99.90;12.10;102716.00;;;;5012071;28;20187;-81
2022/04/30 06:32:17;;;;;;;0.20;0.20;;;12.60;99.90;12.20;102727.00;;;;5013820;28;20679;-81
2022/04/30 06:34:46;;;;;;;0.17;0.17;;;12.60;99.90;12.30;102746.00;;;;4996100;28;20259;-86
2022/04/30 06:37:12;;;;;;;1.87;1.73;;;12.80;99.90;14.10;102770.00;;;;5012228;28;20176;-87
2022/04/30 06:39:38;;;;;;;1.33;1.23;;;13.60;99.90;12.20;102758.00;;;;5012248;28;20635;-86
2022/04/30 06:42:04;;;;;;;1.13;0.73;;;13.10;99.90;11.40;102734.00;;;;4995871;28;20192;-85
2022/04/30 06:44:30;;;;;;;0.53;0.53;;;12.50;99.90;11.80;102746.00;;;;5013853;28;20643;-86
2022/04/30 06:46:56;;;;;;;0.20;0.20;;;12.30;99.90;12.00;102764.00;;;;5013276;28;20182;-83
2022/04/30 06:49:26;;;;;;;0.20;0.20;;;12.30;99.90;11.30;102739.00;;;;5012191;28;20185;-85
2022/04/30 06:51:52;;;;;;;2.60;1.53;;;11.90;99.90;12.10;102765.00;;;;5012200;28;20259;-84
2022/04/30 06:57:11;;;;;;;0.50;0.50;;;13.10;99.90;12.10;102778.00;;;;5016098;28;20215;-80
2022/04/30 06:59:44;;;;;;;0.53;0.43;;;12.80;99.90;12.20;102798.00;;;;5016324;28;20194;-79
2022/04/30 07:02:13;;;;;;;1.03;1.03;;;12.80;99.90;12.20;102781.00;;;;5015989;28;20184;-80
2022/04/30 07:04:42;;;;;;;1.20;1.20;;;12.50;99.90;13.10;102800.00;;;;5017435;28;20514;-80
2022/04/30 07:07:12;;;;;;;1.03;1.03;;;13.20;99.90;14.50;102816.00;;;;5015837;28;20659;-79
2022/04/30 07:09:38;;;;;;;0.87;0.87;;;14.20;99.90;14.80;102835.00;;;;5031933;28;20179;-81
2022/04/30 07:12:09;;;;;;;0.73;0.73;;;14.80;99.90;15.50;102813.00;;;;5016005;28;20241;-80
2022/04/30 07:14:37;;;;;;;0.50;0.50;;;15.30;99.90;14.60;102861.00;;;;5016970;28;20158;-80
2022/04/30 07:17:08;;;;;;;1.53;1.00;;;15.20;99.90;15.80;102873.00;;;;5025559;28;20208;-81
2022/04/30 07:19:35;;;;;;;0.10;0.10;;;16.00;99.90;14.60;102834.00;;;;5020961;28;20193;-80
2022/04/30 07:22:02;;;;;;;4.23;0.87;;;15.50;99.90;15.80;102887.00;;;;5020214;28;20619;-81
2022/04/30 07:24:28;;;;;;;0.43;0.30;;;15.70;99.90;15.80;102898.00;;;;5032348;28;20684;-79
2022/04/30 07:26:54;;;;;;;0.80;0.40;;;16.30;99.90;15.70;102916.00;;;;4998740;28;20199;-80
2022/04/30 07:29:25;;;;;;;0.10;0.10;;;16.30;99.90;14.70;102909.00;;;;5015529;28;20752;-80
2022/04/30 07:31:51;;;;;;;0.53;0.37;;;15.30;99.90;15.10;102902.00;;;;4998835;28;20223;-80
2022/04/30 07:34:17;;;;;;;0.10;0.10;;;15.30;99.90;16.00;102919.00;;;;5016121;28;20622;-79
2022/04/30 07:36:43;;;;;;;0.40;0.40;;;15.80;99.90;15.00;102919.00;;;;4998530;28;20551;-81
2022/04/30 07:39:09;;;;;;;0.30;0.30;;;15.50;99.90;12.80;102846.00;;;;5016487;28;20165;-80
2022/04/30 07:41:49;;;;;;;0.60;0.60;;;14.10;99.90;12.10;102843.00;;;;5029877;28;20195;-79
2022/04/30 07:44:29;;;;;;;0.20;0.20;;;12.90;99.90;12.20;102831.00;;;;5031174;28;20196;-75
2022/04/30 07:46:59;;;;;;;3.13;2.77;;;12.70;99.90;11.90;102768.00;;;;5015190;28;20229;-76
2022/04/30 07:49:25;;;;;;;1.50;0.87;;;12.40;99.90;11.20;102782.00;;;;5015784;28;20175;-74
2022/04/30 07:51:55;;;;;;;0.50;0.50;;;12.00;99.90;11.60;102744.00;;;;5015352;28;20251;-75
2022/04/30 07:54:27;;;;;;;4.17;2.83;;;11.90;99.90;12.00;102703.00;;;;5015330;28;20175;-75
2022/04/30 07:57:22;;;;;;;1.17;1.07;;;12.10;99.90;12.00;102772.00;;;;5015009;28;20191;-76
2022/04/30 08:00:11;;;;;;;1.53;1.43;;;12.10;99.90;11.30;102742.00;;;;5031802;28;20272;-76
2022/04/30 08:02:40;;;;;;;1.60;1.47;;;11.80;99.90;10.70;102709.00;;;;5027306;28;20191;-77
2022/04/30 08:05:06;;;;;;;1.63;1.27;;;11.50;99.90;10.60;102718.00;;;;5014335;28;20175;-78
2022/04/30 08:07:32;;;;;;;2.83;1.33;;;11.30;99.90;10.40;102675.00;;;;5019256;28;20285;-77
2022/04/30 08:10:06;;;;;;;0.30;0.30;;;11.10;99.90;11.10;102724.00;;;;5026603;28;20233;-77
2022/04/30 08:12:33;;;;;;;2.83;1.07;;;11.40;99.90;11.10;102740.00;;;;5013826;28;20232;-78
2022/04/30 08:15:07;;;;;;;1.13;1.10;;;11.50;99.90;11.30;102761.00;;;;5033900;28;20196;-75
2022/04/30 08:17:39;;;;;;;1.40;1.30;;;11.60;99.90;10.70;102758.00;;;;5051248;28;20267;-75
2022/04/30 08:20:25;;;;;;;0.43;0.43;;;11.40;99.90;10.40;102742.00;;;;5050893;28;20186;-75
2022/04/30 08:22:53;;;;;;;1.00;0.80;;;11.00;99.90;10.40;102745.00;;;;5035129;28;20675;-75
2022/04/30 08:25:19;;;;;;;1.97;1.83;;;11.00;99.90;10.80;102732.00;;;;5051329;28;20175;-74
2022/04/30 08:28:10;;;;;;;0.77;0.77;;;11.10;99.90;10.40;102748.00;;;;5046554;28;20257;-74
2022/04/30 08:30:37;;;;;;;0.93;0.87;;;11.00;99.90;10.80;102743.00;;;;5016240;28;20244;-74
2022/04/30 08:33:11;;;;;;;1.87;1.77;;;11.10;99.90;10.40;102723.00;;;;5023333;28;20210;-75
2022/04/30 08:35:48;;;;;;;1.10;1.03;;;11.10;99.90;10.60;102746.00;;;;5035737;28;20181;-73
2022/04/30 08:38:17;;;;;;;1.60;1.27;;;11.10;99.90;10.90;102750.00;;;;5035714;28;20653;-71
2022/04/30 08:40:49;;;;;;;1.73;1.30;;;11.30;99.90;11.20;102758.00;;;;5034570;28;20171;-72
2022/04/30 08:43:19;;;;;;;0.83;0.83;;;11.50;99.90;11.20;102752.00;;;;5018576;28;20190;-75
2022/04/30 08:45:46;;;;;;;0.37;0.37;;;11.50;99.90;11.30;102753.00;;;;5032754;28;20196;-74
2022/04/30 08:48:16;;;;;;;1.10;1.10;;;11.60;99.90;11.40;102741.00;;;;5033442;28;20183;-77
2022/04/30 08:50:46;;;;;;;1.83;1.73;;;11.90;99.90;12.10;102720.00;;;;5034498;28;20178;-70
2022/04/30 08:53:13;;;;;;;0.63;0.63;;;12.10;99.90;12.40;102760.00;;;;5016386;28;20234;-71
2022/04/30 08:55:42;;;;;;;1.83;1.70;;;12.40;99.90;12.00;102778.00;;;;5034864;28;20272;-71
2022/04/30 08:58:12;;;;;;;1.60;1.50;;;12.50;99.90;12.60;102732.00;;;;5034991;28;20316;-71
2022/04/30 09:00:44;;;;;;;0.93;0.93;;;12.60;99.90;12.10;102781.00;;;;5017093;28;20195;-70
2022/04/30 09:03:21;;;;;;;0.63;0.63;;;12.60;99.90;12.40;102770.00;;;;5033311;28;20272;-70
2022/04/30 09:05:51;;;;;;;0.60;0.60;;;12.60;99.90;12.10;102773.00;;;;5016392;28;20174;-70
2022/04/30 09:08:17;;;;;;;1.57;1.57;;;12.50;99.90;12.20;102759.00;;;;5016549;28;20600;-69
2022/04/30 09:10:43;;;;;;;0.20;0.20;;;12.50;99.90;12.60;102760.00;;;;5033044;28;20525;-69
2022/04/30 09:13:15;;;;;;;3.07;1.27;;;12.70;99.90;11.50;102759.00;;;;5033095;28;20206;-69
2022/04/30 09:15:44;;;;;;;0.97;0.97;;;12.40;99.90;11.80;102764.00;;;;5032808;28;20238;-70
2022/04/30 09:18:15;;;;;;;0.67;0.67;;;12.20;99.90;11.50;102763.00;;;;5033746;28;20171;-70
2022/04/30 09:20:48;;;;;;;0.20;0.20;;;12.00;99.90;11.50;102755.00;;;;5033502;28;20686;-69
2022/04/30 09:23:31;;;;;;;0.30;0.30;;;11.90;99.90;12.20;102775.00;;;;5016737;28;20187;-68
2022/04/30 09:26:00;;;;;;;0.50;0.50;;;12.30;99.90;12.10;102758.00;;;;5032257;28;20206;-68
2022/04/30 09:28:33;;;;;;;0.40;0.40;;;12.40;99.90;12.30;102780.00;;;;5032906;28;20265;-68
2022/04/30 09:31:13;;;;;;;0.77;0.77;;;12.60;99.90;11.50;102776.00;;;;5014773;28;20197;-68
2022/04/30 09:33:49;;;;;;;1.10;1.07;;;12.30;99.90;11.70;102791.00;;;;5031967;28;20527;-68
2022/04/30 09:39:12;;;;;;;0.67;0.67;;;12.30;99.90;12.80;102794.00;;;;5032709;28;20214;-68
2022/04/30 09:41:41;;;;;;;1.30;0.33;;;12.70;99.90;12.90;102813.00;;;;5032206;28;20181;-67
2022/04/30 09:44:09;;;;;;;1.53;1.30;;;13.10;99.90;12.90;102808.00;;;;5032008;28;20179;-68
2022/04/30 09:46:40;;;;;;;0.97;0.97;;;13.30;99.90;12.70;102759.00;;;;5033351;28;20196;-68
2022/04/30 09:54:45;;;;;;;1.23;1.23;;;13.30;99.90;13.60;102798.00;;;;5032112;28;20323;-71
2022/04/30 09:57:14;;;;;;;2.53;2.07;;;13.50;99.90;12.90;102796.00;;;;5016083;28;20187;-70
2022/04/30 09:59:54;;;;;;;0.13;0.13;;;13.40;99.90;13.10;102769.00;;;;5031004;28;20629;-70
2022/04/30 10:02:23;;;;;;;0.60;0.60;;;13.20;99.90;13.30;102789.00;;;;5031806;28;20169;-63
2022/04/30 10:04:51;;;;;;;0.30;0.30;;;13.30;99.90;13.30;102782.00;;;;5015909;28;20182;-64
2022/04/30 10:07:20;;;;;;;0.30;0.30;;;13.20;99.90;13.20;102777.00;;;;5033426;28;20180;-64
2022/04/30 10:10:04;;;;;;;2.33;1.23;;;13.50;99.90;12.90;102795.00;;;;5032572;28;20185;-64
2022/04/30 10:12:42;;;;;;;0.67;0.67;;;13.50;99.90;13.20;102756.00;;;;5032770;28;20197;-64
2022/04/30 10:15:25;;;;;;;0.33;0.33;;;13.40;99.90;14.50;102803.00;;;;5032006;28;20658;-71
2022/04/30 10:18:07;;;;;;;0.10;0.10;;;14.00;99.90;14.60;102803.00;;;;5031713;28;20220;-71
2022/04/30 10:20:34;;;;;;;1.40;1.30;;;14.20;99.90;13.20;102804.00;;;;5014530;28;20197;-71
2022/04/30 10:33:14;;;;;;;0.10;0.10;;;13.10;99.90;13.30;102776.00;;;;5121370;27;1404240;-70
2022/04/30 10:35:43;;;;;;;0.63;0.63;;;13.40;99.90;14.50;102796.00;;;;5112680;28;20208;-70
2022/04/30 10:38:12;;;;;;;0.20;0.20;;;14.00;99.90;14.70;102798.00;;;;5148315;27;20178;-70
2022/04/30 10:40:50;;;;;;;0.17;0.17;;;14.50;99.90;14.80;102811.00;;;;5131262;27;20270;-71
2022/04/30 10:43:39;;;;;;;0.10;0.10;;;14.70;99.90;15.40;102808.00;;;;5130239;28;20168;-71
2022/04/30 10:46:22;;;;;;;0.10;0.10;;;14.80;99.90;15.20;102821.00;;;;5147875;27;20246;-71
2022/04/30 10:48:48;;;;;;;0.67;0.67;;;15.00;99.90;15.50;102824.00;;;;5147142;27;20521;-71
2022/04/30 10:51:41;;;;;;;0.40;0.40;;;15.10;99.90;14.10;102808.00;;;;5129219;28;20729;-71
2022/04/30 10:54:21;;;;;;;0.80;0.80;;;14.70;99.90;13.90;102795.00;;;;5146812;27;20283;-71
2022/04/30 10:56:57;;;;;;;2.30;1.97;;;14.10;99.90;14.00;102782.00;;;;5127137;27;20171;-71
2022/04/30 10:59:26;;;;;;;3.07;1.10;;;14.00;99.90;14.30;102786.00;;;;5109274;28;20170;-71
2022/04/30 11:01:53;;;;;;;1.53;1.43;;;14.40;99.90;12.90;102765.00;;;;5125898;28;20198;-71
2022/04/30 11:04:27;;;;;;;0.23;0.23;;;13.70;99.90;13.30;102731.00;;;;5126735;28;20250;-71
2022/04/30 11:06:54;;;;;;;0.10;0.10;;;13.60;99.90;13.30;102738.00;;;;5130241;28;20168;-72
2022/04/30 11:09:22;;;;;;;1.13;1.03;;;13.60;99.90;13.90;102747.00;;;;5129282;28;20182;-75
2022/04/30 11:11:52;;;;;;;0.97;0.73;;;14.00;99.90;13.70;102736.00;;;;5129790;28;20192;-74
2022/04/30 11:14:25;;;;;;;1.70;1.60;;;13.90;99.90;13.00;102739.00;;;;5130081;28;20777;-72
2022/04/30 11:16:51;;;;;;;1.23;1.13;;;13.90;99.90;12.70;102716.00;;;;5129315;28;20514;-72
2022/04/30 11:19:23;;;;;;;1.23;1.13;;;13.50;99.90;13.20;102722.00;;;;5129659;28;20192;-72
2022/04/30 11:21:54;;;;;;;0.47;0.47;;;13.30;99.90;14.10;102728.00;;;;5130927;27;20181;-72
2022/04/30 11:24:28;;;;;;;0.10;0.10;;;13.80;99.90;14.10;102746.00;;;;5128820;28;20248;-73
2022/04/30 11:27:00;;;;;;;0.53;0.53;;;14.00;99.90;13.00;102728.00;;;;5129453;28;20184;-72
2022/04/30 11:29:27;;;;;;;0.10;0.10;;;13.80;99.90;13.00;102721.00;;;;5128629;27;20271;-72
2022/04/30 11:32:05;;;;;;;0.27;0.27;;;13.50;99.90;13.20;102719.00;;;;5129565;27;20304;-73
2022/04/30 11:34:34;;;;;;;0.73;0.30;;;13.50;99.90;13.70;102717.00;;;;5130591;27;20268;-72
2022/04/30 11:37:01;;;;;;;0.93;0.53;;;13.70;99.90;13.60;102726.00;;;;5129481;28;21020;-72
2022/04/30 11:39:28;;;;;;;3.13;2.93;;;13.80;99.90;13.40;102674.00;;;;5129401;27;20180;-73
2022/04/30 11:41:55;;;;;;;1.40;1.30;;;13.70;99.90;13.60;102586.00;;;;5145436;27;20186;-73
2022/04/30 11:44:24;;;;;;;0.40;0.40;;;13.60;99.90;13.80;102685.00;;;;5112403;27;20181;-73
2022/04/30 11:46:54;;;;;;;0.30;0.30;;;13.70;99.90;14.70;102669.00;;;;5095112;28;20258;-73
2022/04/30 11:49:26;;;;;;;0.30;0.30;;;14.20;99.90;14.90;102650.00;;;;5095027;28;20164;-73
2022/04/30 11:51:56;;;;;;;0.10;0.10;;;14.50;99.90;15.40;102728.00;;;;5094978;28;20256;-74